Terminal Aerodrome Forecast
Issued by NWS Detroit/Pontiac, MI

Home | Current Version | Previous Version | Text Only | Print | Product List | Glossary On
Versions: 1 2 3 4 5 6 7 8 9 10 11 12 13 14 15 16 17 18 19 20 21 22 23 24 25 26 27 28
000
FTUS43 KDTX 262327
TAFDTW
TAF
KDTW 262327Z 2700/2806 20013KT P6SM BKN060 OVC120
      TEMPO 2700/2702 3SM SHRA OVC025
     FM270200 20010KT P6SM SCT030 BKN120
     FM271000 22007KT 5SM BR SCT015
     FM271600 24013G20KT P6SM SCT050=

USA.gov is the U.S. government's official web portal to all federal, state and local government web resources and services.